createdAt,value
2022-12-18T00:01:36.371Z,-7.87
2022-12-18T00:04:37.771Z,-7.97
2022-12-18T00:07:39.535Z,-8.00
2022-12-18T00:10:40.930Z,-8.05
2022-12-18T00:13:42.937Z,-8.08
2022-12-18T00:16:46.168Z,-8.06
2022-12-18T00:19:47.478Z,-8.13
2022-12-18T00:22:48.820Z,-8.12
2022-12-18T00:25:50.204Z,-8.06
2022-12-18T00:28:52.352Z,-8.02
2022-12-18T00:31:53.750Z,-7.85
2022-12-18T00:34:55.143Z,-7.67
2022-12-18T00:37:56.460Z,-7.58
2022-12-18T00:40:58.589Z,-7.53
2022-12-18T00:43:59.913Z,-7.52
2022-12-18T00:47:01.281Z,-7.50
2022-12-18T00:50:02.694Z,-7.42
2022-12-18T00:53:04.033Z,-7.39
2022-12-18T00:56:06.033Z,-7.28
2022-12-18T00:59:07.395Z,-7.21
2022-12-18T01:02:08.862Z,-7.16
2022-12-18T01:05:13.182Z,-7.11
2022-12-18T01:08:14.687Z,-7.39
2022-12-18T01:11:20.427Z,-7.78
2022-12-18T01:14:21.934Z,-7.95
2022-12-18T01:17:23.474Z,-7.99
2022-12-18T01:20:24.809Z,-8.07
2022-12-18T01:23:27.202Z,-8.17
2022-12-18T01:26:28.682Z,-8.27
2022-12-18T01:29:30.111Z,-8.27
2022-12-18T01:32:32.440Z,-8.30
2022-12-18T01:35:33.803Z,-8.32
2022-12-18T01:38:37.771Z,-8.32
2022-12-18T01:41:39.487Z,-8.28
2022-12-18T01:45:14.600Z,-8.25
2022-12-18T01:48:17.952Z,-8.25
2022-12-18T01:51:19.405Z,-8.43
2022-12-18T01:54:20.812Z,-8.57
2022-12-18T01:57:23.034Z,-8.66
2022-12-18T02:00:25.916Z,-8.73
2022-12-18T02:03:27.312Z,-8.63
2022-12-18T02:06:41.020Z,-8.42
2022-12-18T02:09:55.525Z,-8.18
2022-12-18T02:13:25.752Z,-8.10
2022-12-18T02:16:52.462Z,-8.14
2022-12-18T02:20:13.101Z,-8.09
2022-12-18T02:23:50.366Z,-8.00
2022-12-18T02:27:00.528Z,-7.85
2022-12-18T02:30:06.271Z,-7.72
2022-12-18T02:33:09.865Z,-7.72
2022-12-18T02:36:14.513Z,-7.71
2022-12-18T02:39:20.173Z,-7.73
2022-12-18T02:42:32.368Z,-7.74
2022-12-18T02:45:34.637Z,-7.76
2022-12-18T02:48:37.067Z,-7.80
2022-12-18T02:51:49.032Z,-7.81
2022-12-18T02:55:00.835Z,-7.94
2022-12-18T02:58:17.367Z,-8.08
2022-12-18T03:01:30.078Z,-8.22
2022-12-18T03:04:40.387Z,-8.44
2022-12-18T03:07:54.737Z,-8.53
2022-12-18T03:11:05.532Z,-8.61
2022-12-18T03:14:10.288Z,-8.72
2022-12-18T03:17:17.411Z,-8.69
2022-12-18T03:20:22.250Z,-8.70
2022-12-18T03:23:28.260Z,-8.73
2022-12-18T03:26:30.844Z,-8.78
2022-12-18T03:29:49.717Z,-8.83
2022-12-18T03:33:03.833Z,-8.88
2022-12-18T03:36:05.529Z,-8.84
2022-12-18T03:39:08.353Z,-8.77
2022-12-18T03:42:25.945Z,-8.76
2022-12-18T03:45:55.440Z,-8.75
2022-12-18T03:49:30.810Z,-8.69
2022-12-18T03:52:47.038Z,-8.76
2022-12-18T03:55:52.331Z,-8.80
2022-12-18T03:58:57.026Z,-8.86
2022-12-18T04:02:04.283Z,-8.91
2022-12-18T04:05:08.102Z,-8.94
2022-12-18T04:08:14.502Z,-8.94
2022-12-18T04:11:19.681Z,-8.95
2022-12-18T04:14:22.711Z,-8.99
2022-12-18T04:17:28.360Z,-8.95
2022-12-18T04:20:29.923Z,-8.90
2022-12-18T04:23:31.355Z,-8.92
2022-12-18T04:26:34.114Z,-8.94
2022-12-18T04:29:55.725Z,-8.98
2022-12-18T04:32:57.134Z,-9.02
2022-12-18T04:35:59.469Z,-8.99
2022-12-18T04:39:01.245Z,-8.90
2022-12-18T04:42:03.042Z,-8.86
2022-12-18T04:45:04.737Z,-8.86
2022-12-18T04:48:06.210Z,-8.89
2022-12-18T04:51:07.962Z,-8.92
2022-12-18T04:54:09.298Z,-8.95
2022-12-18T04:57:10.694Z,-8.94
2022-12-18T05:00:12.800Z,-8.92
2022-12-18T05:03:14.209Z,-8.89
2022-12-18T05:06:15.662Z,-8.88
2022-12-18T05:09:16.999Z,-8.86
2022-12-18T05:12:18.634Z,-8.88
2022-12-18T05:15:20.297Z,-8.87
2022-12-18T05:18:22.794Z,-8.95
2022-12-18T05:21:24.142Z,-9.01
2022-12-18T05:24:25.543Z,-9.04
2022-12-18T05:27:26.867Z,-9.04
2022-12-18T05:30:28.247Z,-9.07
2022-12-18T05:33:32.612Z,-9.13
2022-12-18T05:36:33.997Z,-9.19
2022-12-18T05:39:35.343Z,-9.22
2022-12-18T05:42:36.677Z,-9.24
2022-12-18T05:45:39.368Z,-9.20
2022-12-18T05:48:41.565Z,-9.22
2022-12-18T05:51:42.912Z,-9.28
2022-12-18T05:54:44.289Z,-9.33
2022-12-18T05:57:45.651Z,-9.39
2022-12-18T06:00:47.410Z,-9.45
2022-12-18T06:03:48.813Z,-9.49
2022-12-18T06:06:50.237Z,-9.50
2022-12-18T06:09:51.605Z,-9.43
2022-12-18T06:12:52.952Z,-9.35
2022-12-18T06:15:54.347Z,-9.26
2022-12-18T06:19:01.097Z,-9.24
2022-12-18T06:22:02.828Z,-9.25
2022-12-18T06:25:05.216Z,-9.27
2022-12-18T06:28:06.560Z,-9.27
2022-12-18T06:31:08.272Z,-9.29
2022-12-18T06:34:09.650Z,-9.30
2022-12-18T06:37:11.014Z,-9.33
2022-12-18T06:40:12.347Z,-9.35
2022-12-18T06:43:13.710Z,-9.39
2022-12-18T06:46:15.389Z,-9.45
2022-12-18T06:49:16.864Z,-9.46
2022-12-18T06:52:18.474Z,-9.47
2022-12-18T06:55:20.031Z,-9.45
2022-12-18T06:58:21.433Z,-9.45
2022-12-18T07:01:23.136Z,-9.47
2022-12-18T07:04:29.836Z,-9.52
2022-12-18T07:07:31.176Z,-9.56
2022-12-18T07:10:32.541Z,-9.55
2022-12-18T07:13:33.892Z,-9.53
2022-12-18T07:16:35.257Z,-9.50
2022-12-18T07:19:36.768Z,-9.48
2022-12-18T07:22:38.095Z,-9.46
2022-12-18T07:25:39.472Z,-9.47
2022-12-18T07:28:41.957Z,-9.48
2022-12-18T07:31:43.493Z,-9.42
2022-12-18T07:34:44.921Z,-9.31
2022-12-18T07:37:46.270Z,-9.30
2022-12-18T07:40:47.601Z,-9.30
2022-12-18T07:43:49.240Z,-9.30
2022-12-18T07:46:50.571Z,-9.30
2022-12-18T07:49:52.009Z,-9.28
2022-12-18T07:52:53.334Z,-9.24
2022-12-18T07:56:26.545Z,-9.14
2022-12-18T07:59:24.276Z,-9.07
2022-12-18T08:02:25.714Z,-9.00
2022-12-18T08:05:27.876Z,-8.93
2022-12-18T08:08:29.784Z,-8.87
2022-12-18T08:11:31.111Z,-8.81
2022-12-18T08:14:32.476Z,-8.77
2022-12-18T08:17:33.988Z,-8.70
2022-12-18T08:20:36.116Z,-8.65
2022-12-18T08:23:42.615Z,-8.60
2022-12-18T08:27:00.822Z,-8.56
2022-12-18T08:30:06.842Z,-8.50
2022-12-18T08:33:08.686Z,-8.43
2022-12-18T08:36:10.896Z,-8.34
2022-12-18T08:39:12.256Z,-8.28
2022-12-18T08:42:13.645Z,-8.24
2022-12-18T08:45:15.122Z,-8.17
2022-12-18T08:48:21.899Z,-8.08
2022-12-18T08:51:23.921Z,-8.00
2022-12-18T08:54:25.736Z,-7.91
2022-12-18T08:57:27.281Z,-7.81
2022-12-18T09:00:28.613Z,-7.64
2022-12-18T09:03:30.439Z,-7.49
2022-12-18T09:06:31.825Z,-7.33
2022-12-18T09:09:33.183Z,-7.16
2022-12-18T09:12:34.546Z,-6.99
2022-12-18T09:15:41.496Z,-6.82
2022-12-18T09:18:43.319Z,-6.58
2022-12-18T09:21:48.248Z,-6.41
2022-12-18T09:24:49.922Z,-6.30
2022-12-18T09:27:51.360Z,-6.26
2022-12-18T09:30:52.774Z,-6.14
2022-12-18T09:33:56.611Z,-5.95
2022-12-18T09:36:57.950Z,-5.79
2022-12-18T09:39:59.303Z,-5.77
2022-12-18T09:43:05.526Z,-5.65
2022-12-18T09:46:16.581Z,-5.48
2022-12-18T09:49:23.430Z,-5.47
2022-12-18T09:52:30.659Z,-5.38
2022-12-18T09:55:38.755Z,-5.24
2022-12-18T09:58:49.539Z,-5.13
2022-12-18T10:01:51.099Z,-5.08
2022-12-18T10:05:13.995Z,-4.91
2022-12-18T10:08:34.180Z,-4.67
2022-12-18T10:11:44.567Z,-4.67
2022-12-18T10:14:56.751Z,-4.63
2022-12-18T10:18:21.861Z,-4.58
2022-12-18T10:21:33.013Z,-4.43
2022-12-18T10:25:16.161Z,-4.40
2022-12-18T10:28:20.179Z,-4.46
2022-12-18T10:31:24.728Z,-4.33
2022-12-18T10:34:26.314Z,-4.23
2022-12-18T10:37:29.935Z,-4.29
2022-12-18T10:40:31.788Z,-4.15
2022-12-18T10:43:38.831Z,-3.92
2022-12-18T10:46:40.521Z,-3.82
2022-12-18T10:49:50.995Z,-3.82
2022-12-18T10:52:57.894Z,-3.96
2022-12-18T10:55:59.810Z,-3.89
2022-12-18T10:59:09.796Z,-3.80
2022-12-18T11:02:34.824Z,-3.81
2022-12-18T11:05:36.389Z,-3.83
2022-12-18T11:08:39.595Z,-3.81
2022-12-18T11:11:41.202Z,-3.81
2022-12-18T11:14:46.918Z,-3.78
2022-12-18T11:17:51.598Z,-3.72
2022-12-18T11:21:00.210Z,-3.76
2022-12-18T11:24:01.634Z,-3.79
2022-12-18T11:27:05.912Z,-3.79
2022-12-18T11:30:23.019Z,-3.79
2022-12-18T11:33:24.550Z,-3.78
2022-12-18T11:36:29.916Z,-3.69
2022-12-18T11:39:37.754Z,-3.60
2022-12-18T11:42:55.748Z,-3.58
2022-12-18T11:46:05.343Z,-3.53
2022-12-18T11:49:19.659Z,-3.53
2022-12-18T11:52:28.903Z,-3.52
2022-12-18T11:56:00.907Z,-3.51
2022-12-18T11:59:45.372Z,-3.48
2022-12-18T12:03:15.114Z,-3.40
2022-12-18T12:06:27.408Z,-3.33
2022-12-18T12:09:46.873Z,-3.32
2022-12-18T12:13:14.240Z,-3.32
2022-12-18T12:16:41.993Z,-3.32
2022-12-18T12:19:55.346Z,-3.29
2022-12-18T12:23:13.887Z,-3.21
2022-12-18T12:26:48.805Z,-3.12
2022-12-18T12:30:19.561Z,-3.05
2022-12-18T12:33:52.950Z,-2.98
2022-12-18T12:37:20.653Z,-2.89
2022-12-18T12:40:51.314Z,-2.83
2022-12-18T12:43:50.333Z,-2.78
2022-12-18T12:46:57.070Z,-2.74
2022-12-18T12:50:02.308Z,-2.70
2022-12-18T12:53:12.386Z,-2.65
2022-12-18T12:56:17.558Z,-2.61
2022-12-18T12:59:38.362Z,-2.54
2022-12-18T13:03:17.653Z,-2.50
2022-12-18T13:06:41.576Z,-2.41
2022-12-18T13:10:17.843Z,-2.40
2022-12-18T13:13:23.757Z,-2.43
2022-12-18T13:16:27.432Z,-2.46
2022-12-18T13:19:28.886Z,-2.55
2022-12-18T13:22:37.868Z,-2.60
2022-12-18T13:25:39.737Z,-2.67
2022-12-18T13:28:47.276Z,-2.68
2022-12-18T13:31:51.428Z,-2.70
2022-12-18T13:35:17.716Z,-2.76
2022-12-18T13:38:32.132Z,-2.78
2022-12-18T13:41:33.392Z,-2.87
2022-12-18T13:44:40.710Z,-2.86
2022-12-18T13:47:44.542Z,-2.86
2022-12-18T13:50:58.608Z,-2.92
2022-12-18T13:54:20.751Z,-2.98
2022-12-18T13:57:29.051Z,-3.02
2022-12-18T14:00:31.233Z,-3.03
2022-12-18T14:03:32.649Z,-3.18
2022-12-18T14:06:35.554Z,-3.31
2022-12-18T14:09:42.996Z,-3.49
2022-12-18T14:12:51.900Z,-3.64
2022-12-18T14:15:53.473Z,-3.74
2022-12-18T14:18:58.536Z,-3.83
2022-12-18T14:22:18.005Z,-3.91
2022-12-18T14:25:21.469Z,-4.02
2022-12-18T14:28:22.834Z,-4.08
2022-12-18T14:31:27.881Z,-4.17
2022-12-18T14:34:29.235Z,-4.22
2022-12-18T14:37:30.591Z,-4.28
2022-12-18T14:40:31.970Z,-4.32
2022-12-18T14:43:35.991Z,-4.38
2022-12-18T14:46:43.450Z,-4.43
2022-12-18T14:49:44.831Z,-4.51
2022-12-18T14:52:46.215Z,-4.56
2022-12-18T14:55:48.909Z,-4.63
2022-12-18T14:59:02.052Z,-4.71
2022-12-18T15:02:22.670Z,-4.73
2022-12-18T15:05:31.890Z,-4.78
2022-12-18T15:08:37.980Z,-4.81
2022-12-18T15:11:42.452Z,-4.87
2022-12-18T15:14:43.819Z,-4.89
2022-12-18T15:17:45.186Z,-4.90
2022-12-18T15:20:55.251Z,-4.96
2022-12-18T15:23:59.724Z,-5.02
2022-12-18T15:27:01.801Z,-5.05
2022-12-18T15:30:05.937Z,-5.06
2022-12-18T15:33:24.036Z,-5.03
2022-12-18T15:36:28.570Z,-5.01
2022-12-18T15:39:29.909Z,-4.99
2022-12-18T15:42:31.429Z,-5.02
2022-12-18T15:45:33.051Z,-5.00
2022-12-18T15:48:44.426Z,-5.01
2022-12-18T15:51:50.938Z,-5.01
2022-12-18T15:54:52.590Z,-5.01
2022-12-18T15:57:53.911Z,-5.05
2022-12-18T16:00:59.346Z,-5.06
2022-12-18T16:04:00.803Z,-5.06
2022-12-18T16:07:25.101Z,-5.08
2022-12-18T16:10:25.258Z,-5.12
2022-12-18T16:13:26.594Z,-5.13
2022-12-18T16:16:28.386Z,-5.13
2022-12-18T16:19:30.839Z,-5.12
2022-12-18T16:22:32.195Z,-5.15
2022-12-18T16:25:33.827Z,-5.18
2022-12-18T16:28:35.175Z,-5.20
2022-12-18T16:31:37.456Z,-5.19
2022-12-18T16:34:38.807Z,-5.22
2022-12-18T16:37:41.468Z,-5.17
2022-12-18T16:40:42.819Z,-5.17
2022-12-18T16:43:45.032Z,-5.13
2022-12-18T16:46:47.528Z,-5.18
2022-12-18T16:49:48.864Z,-5.17
2022-12-18T16:52:52.009Z,-5.15
2022-12-18T16:55:56.505Z,-5.12
2022-12-18T16:59:00.469Z,-5.09
2022-12-18T17:02:02.010Z,-5.09
2022-12-18T17:05:06.789Z,-5.06
2022-12-18T17:08:08.156Z,-5.04
2022-12-18T17:11:09.532Z,-5.07
2022-12-18T17:14:14.577Z,-5.08
2022-12-18T17:17:24.038Z,-5.08
2022-12-18T17:20:25.552Z,-5.08
2022-12-18T17:23:27.965Z,-5.09
2022-12-18T17:26:29.877Z,-5.10
2022-12-18T17:29:31.320Z,-5.08
2022-12-18T17:32:32.641Z,-5.06
2022-12-18T17:35:34.002Z,-5.08
2022-12-18T17:38:35.904Z,-5.08
2022-12-18T17:41:37.241Z,-5.08
2022-12-18T17:44:38.601Z,-5.03
2022-12-18T17:47:40.806Z,-5.05
2022-12-18T17:50:42.190Z,-5.05
2022-12-18T17:53:44.559Z,-5.05
2022-12-18T17:56:46.203Z,-5.04
2022-12-18T17:59:47.739Z,-5.03
2022-12-18T18:02:49.204Z,-5.04
2022-12-18T18:05:57.894Z,-5.03
2022-12-18T18:08:59.219Z,-5.04
2022-12-18T18:12:00.648Z,-5.01
2022-12-18T18:15:02.180Z,-4.98
2022-12-18T18:18:03.733Z,-4.98
2022-12-18T18:21:06.131Z,-4.98
2022-12-18T18:24:08.572Z,-4.96
2022-12-18T18:27:10.121Z,-4.98
2022-12-18T18:30:12.170Z,-4.98
2022-12-18T18:33:13.519Z,-4.98
2022-12-18T18:36:14.976Z,-4.99
2022-12-18T18:39:16.804Z,-4.99
2022-12-18T18:42:18.134Z,-4.98
2022-12-18T18:45:19.556Z,-4.99
2022-12-18T18:48:20.915Z,-4.97
2022-12-18T18:51:22.465Z,-4.94
2022-12-18T18:54:24.640Z,-4.94
2022-12-18T18:57:30.139Z,-4.93
2022-12-18T19:00:32.051Z,-4.92
2022-12-18T19:03:35.604Z,-4.94
2022-12-18T19:06:37.044Z,-4.94
2022-12-18T19:09:38.741Z,-4.94
2022-12-18T19:12:40.497Z,-4.93
2022-12-18T19:15:42.269Z,-4.94
2022-12-18T19:18:44.030Z,-4.92
2022-12-18T19:21:46.473Z,-4.92
2022-12-18T19:24:47.838Z,-4.96
2022-12-18T19:27:49.280Z,-4.93
2022-12-18T19:30:58.991Z,-4.91
2022-12-18T19:34:00.805Z,-4.92
2022-12-18T19:37:02.167Z,-4.89
2022-12-18T19:40:07.268Z,-4.89
2022-12-18T19:43:14.102Z,-4.86
2022-12-18T19:46:18.504Z,-4.86
2022-12-18T19:49:19.959Z,-4.86
2022-12-18T19:52:24.286Z,-4.83
2022-12-18T19:55:25.857Z,-4.81
2022-12-18T19:58:27.425Z,-4.79
2022-12-18T20:01:30.468Z,-4.76
2022-12-18T20:04:32.303Z,-4.71
2022-12-18T20:07:33.793Z,-4.71
2022-12-18T20:10:35.152Z,-4.68
2022-12-18T20:13:36.675Z,-4.66
2022-12-18T20:16:38.339Z,-4.64
2022-12-18T20:19:39.765Z,-4.65
2022-12-18T20:22:41.441Z,-4.65
2022-12-18T20:25:42.891Z,-4.64
2022-12-18T20:28:44.356Z,-4.63
2022-12-18T20:31:45.872Z,-4.62
2022-12-18T20:34:47.406Z,-4.59
2022-12-18T20:37:48.867Z,-4.57
2022-12-18T20:40:52.247Z,-4.59
2022-12-18T20:43:53.619Z,-4.57
2022-12-18T20:46:57.638Z,-4.58
2022-12-18T20:49:59.039Z,-4.57
2022-12-18T20:53:00.467Z,-4.56
2022-12-18T20:56:06.659Z,-4.56
2022-12-18T20:59:09.299Z,-4.52
2022-12-18T21:02:13.505Z,-4.50
2022-12-18T21:05:15.088Z,-4.47
2022-12-18T21:08:16.427Z,-4.44
2022-12-18T21:11:20.724Z,-4.43
2022-12-18T21:14:24.727Z,-4.43
2022-12-18T21:17:27.319Z,-4.43
2022-12-18T21:20:29.947Z,-4.43
2022-12-18T21:23:31.459Z,-4.45
2022-12-18T21:26:40.436Z,-4.46
2022-12-18T21:29:46.424Z,-4.42
2022-12-18T21:32:47.809Z,-4.37
2022-12-18T21:35:49.156Z,-4.35
2022-12-18T21:38:53.031Z,-4.31
2022-12-18T21:41:56.396Z,-4.30
2022-12-18T21:44:57.777Z,-4.24
2022-12-18T21:47:59.129Z,-4.18
2022-12-18T21:51:00.491Z,-4.11
2022-12-18T21:54:02.366Z,-4.02
2022-12-18T21:57:05.911Z,-3.95
2022-12-18T22:00:19.352Z,-3.91
2022-12-18T22:03:21.100Z,-3.86
2022-12-18T22:06:22.538Z,-3.86
2022-12-18T22:09:25.283Z,-3.84
2022-12-18T22:12:26.645Z,-3.83
2022-12-18T22:15:28.062Z,-3.82
2022-12-18T22:18:29.431Z,-3.82
2022-12-18T22:21:33.016Z,-3.81
2022-12-18T22:24:34.356Z,-3.81
2022-12-18T22:27:35.850Z,-3.78
2022-12-18T22:30:37.170Z,-3.79
2022-12-18T22:33:38.501Z,-3.79
2022-12-18T22:36:45.638Z,-3.78
2022-12-18T22:39:46.988Z,-3.76
2022-12-18T22:42:48.440Z,-3.78
2022-12-18T22:45:52.654Z,-3.79
2022-12-18T22:48:54.072Z,-3.75
2022-12-18T22:51:55.499Z,-3.73
2022-12-18T22:54:56.842Z,-3.66
2022-12-18T22:57:58.179Z,-3.63
2022-12-18T23:00:59.548Z,-3.58
2022-12-18T23:04:01.351Z,-3.58
2022-12-18T23:07:05.954Z,-3.53
2022-12-18T23:10:07.672Z,-3.48
2022-12-18T23:13:09.157Z,-3.45
2022-12-18T23:16:16.337Z,-3.39
2022-12-18T23:19:17.703Z,-3.40
2022-12-18T23:22:19.020Z,-3.38
2022-12-18T23:25:20.417Z,-3.40
2022-12-18T23:28:21.764Z,-3.41
2022-12-18T23:31:26.129Z,-3.41
2022-12-18T23:34:27.557Z,-3.41
2022-12-18T23:37:57.121Z,-3.41
2022-12-18T23:40:50.191Z,-3.42
2022-12-18T23:43:55.672Z,-3.42
2022-12-18T23:46:57.092Z,-3.40
2022-12-18T23:49:58.507Z,-3.42
2022-12-18T23:53:04.658Z,-3.44
2022-12-18T23:56:08.699Z,-3.40
2022-12-18T23:59:10.336Z,-3.43
